Draper, UT (84020)

1:15 AM MDT on September 03, 2014 (GMT -0600)
Corner Canyon | Change Station
CLOSE
Current Station
Personal Weather Station
Location: Draper, UT
Elevation: 4449 ft
Nearby Weather Stations

Elev 4449 ft 40.51 °N, 111.89 °W | Updated 4 minutes ago

Clear
Clear
80.3 °F
Feels Like 79 °F
N
5.0
Wind Variable Wind from SSE
Gusts 12.0 mph

Today
High -- | Low -- °F
--% Chance of Precip.
Yesterday
High -- | Low -- °F
Precip. -- in
6:56 AM 7:56 PM
First Quarter, 59% visible
Pressure 29.58 in
Visibility 10.0 miles
Clouds Scattered Clouds 15000 ft
Heat Index 79 °F
Dew Point 33 °F
Humidity 18%
Rainfall 0.00 in
Snow Depth Not available.
UV 0 out of 12
Pollen 7.50 out of 12
Ozone Good
PM2.5 Good
Flu Activity Not available.
METAR KSLC 030653Z 14012KT 10SM SCT150 23/06 A2976 RMK AO2 SLP017 T02330056 403170139

More Conditions Fewer Conditions

Pressure 29.58 in
Visibility 10.0 miles
Clouds Scattered Clouds 15000 ft
Heat Index 79 °F
Dew Point 33 °F
Humidity 18%
Rainfall 0.00 in
Snow Depth Not available.
UV 0 out of 12
Pollen 7.50 out of 12
Ozone Good
PM2.5 Good
Flu Activity Not available.
METAR KSLC 030653Z 14012KT 10SM SCT150 23/06 A2976 RMK AO2 SLP017 T02330056 403170139

More Conditions Fewer Conditions

10-Day Weather Forecast

Almanac

Astronomy

Sep. 03, 2014 Rise Set
Actual Time 6:56 AM MDT 7:56 PM MDT
Civil Twilight 6:28 AM MDT 8:23 PM MDT
Nautical Twilight 5:55 AM MDT 8:57 PM MDT
Astronomical Twilight 5:20 AM MDT 9:31 PM MDT
Moon 3:42 PM MDT 12:53 AM MDT
Length of Visible Light 13h 55m
Length of Day
12h 59m
Tomorrow will be 2m 35s shorter.
First Quarter, 59% of the Moon is Illuminated
Today
First Quarter
Sep 8
Full
Sep 15
Last Quarter
Sep 24
New
Oct 1
First Quarter

Today's Extremes

State Highs State Lows

Community

WunderPhotos

Upload Photos

1,749,888 photos uploaded!

Nearby

Air Quality

  Air Quality AQ Index Pollutant
Yesterday Good
OZONE
Yesterday Good
PM2.5
Current Good
PM2.5
Current Good
OZONE
Tuesday Moderate
OZONE
Wednesday Moderate
OZONE
Thursday Moderate
OZONE

Snow Depth

Station Depth Elevation
Cascade Mountain 0 in 7768 ft
Louis Meadow 0 in 6700 ft
Hardscrabble 0 in 7250 ft
Daniels-Strawberry 0 in 8000 ft
Strawberry Divide 0 in 8400 ft

Earthquake Activity

City Distance Mag. Time & Date
No recent earthquake activity has been reported nearby.
Minimum magnitude displayed is 2.5.

Coastal Water Temperatures

Place Temperature
No Stations Reporting

Nearby Weather Stations